Time;durP1;ratioP1;P1;durP2;ratioP2;P2;SDS_P1;SDS_P2;PMS_P1;PMS_P2;Temp;Humidity;BMP_temperature;BMP_pressure;BME280_temperature;BME280_humidity;BME280_pressure;Samples;Min_cycle;Max_cycle;Signal;HPM_P1;HPM_P2
2021/03/14 00:00:57;;;;;;;47.03;30.45;;;;;;;;;;4998300;28;20034;-81
2021/03/14 00:03:24;;;;;;;47.53;30.95;;;;;;;;;;4999335;28;20026;-81
2021/03/14 00:05:51;;;;;;;56.22;33.75;;;;;;;;;;4999515;28;20027;-81
2021/03/14 00:08:21;;;;;;;65.00;35.78;;;;;;;;;;4998913;28;20372;-83
2021/03/14 00:10:49;;;;;;;64.88;35.78;;;;;;;;;;4999159;28;20041;-81
2021/03/14 00:13:20;;;;;;;58.05;33.30;;;;;;;;;;4997979;28;20057;-81
2021/03/14 00:15:46;;;;;;;47.67;29.73;;;;;;;;;;4998976;28;20397;-81
2021/03/14 00:18:12;;;;;;;49.88;29.80;;;;;;;;;;4999021;28;20053;-81
2021/03/14 00:20:38;;;;;;;56.22;30.95;;;;;;;;;;4997866;28;20122;-81
2021/03/14 00:23:05;;;;;;;85.25;41.90;;;;;;;;;;4998799;28;20026;-81
2021/03/14 00:25:31;;;;;;;92.20;44.83;;;;;;;;;;4998809;28;20033;-81
2021/03/14 00:27:58;;;;;;;82.75;44.00;;;;;;;;;;4998545;28;20425;-80
2021/03/14 00:30:24;;;;;;;72.13;38.45;;;;;;;;;;4998929;28;20069;-81
2021/03/14 00:32:51;;;;;;;60.38;33.20;;;;;;;;;;4998310;28;20439;-81
2021/03/14 00:35:17;;;;;;;49.97;28.95;;;;;;;;;;4998861;28;20050;-81
2021/03/14 00:37:43;;;;;;;44.53;28.40;;;;;;;;;;4996546;28;20019;-81
2021/03/14 00:40:10;;;;;;;46.80;26.92;;;;;;;;;;4997571;28;20030;-81
2021/03/14 00:42:36;;;;;;;47.03;27.35;;;;;;;;;;4998600;28;20037;-81
2021/03/14 00:45:03;;;;;;;43.55;25.30;;;;;;;;;;4997504;28;20026;-81
2021/03/14 00:47:29;;;;;;;41.22;25.02;;;;;;;;;;4998868;28;20030;-81
2021/03/14 00:49:56;;;;;;;40.70;24.38;;;;;;;;;;4998502;28;20030;-80
2021/03/14 00:52:22;;;;;;;36.42;24.08;;;;;;;;;;4996513;28;20057;-80
2021/03/14 00:54:48;;;;;;;43.70;25.48;;;;;;;;;;4997708;28;20023;-81
2021/03/14 00:57:14;;;;;;;38.03;24.05;;;;;;;;;;4997682;28;20030;-81
2021/03/14 00:59:40;;;;;;;39.95;24.13;;;;;;;;;;4997981;28;20022;-81
2021/03/14 01:02:06;;;;;;;41.20;23.95;;;;;;;;;;4996217;28;20405;-81
2021/03/14 01:04:32;;;;;;;39.38;24.50;;;;;;;;;;4996732;28;20037;-80
2021/03/14 01:06:58;;;;;;;38.83;23.58;;;;;;;;;;4998020;28;20413;-81
2021/03/14 01:09:24;;;;;;;42.05;25.67;;;;;;;;;;4998141;28;20406;-81
2021/03/14 01:11:50;;;;;;;45.25;27.35;;;;;;;;;;4998190;28;20033;-83
2021/03/14 01:14:16;;;;;;;46.38;27.38;;;;;;;;;;4998057;28;20299;-81
2021/03/14 01:16:42;;;;;;;39.22;24.58;;;;;;;;;;4997828;28;20033;-80
2021/03/14 01:19:09;;;;;;;44.17;27.80;;;;;;;;;;4997902;28;20321;-81
2021/03/14 01:21:35;;;;;;;42.25;24.23;;;;;;;;;;4997714;28;20023;-81
2021/03/14 01:24:01;;;;;;;36.50;24.00;;;;;;;;;;4998092;28;20418;-81
2021/03/14 01:26:27;;;;;;;39.25;23.23;;;;;;;;;;4997849;28;20121;-81
2021/03/14 01:28:53;;;;;;;35.33;21.73;;;;;;;;;;4997830;28;20042;-81
2021/03/14 01:31:19;;;;;;;32.85;22.00;;;;;;;;;;4996128;28;20026;-80
2021/03/14 01:33:45;;;;;;;34.20;22.58;;;;;;;;;;4997382;28;20022;-81
2021/03/14 01:36:11;;;;;;;122.65;43.35;;;;;;;;;;4997596;28;20034;-81
2021/03/14 01:38:37;;;;;;;213.65;58.47;;;;;;;;;;4997465;28;20037;-81
2021/03/14 01:41:03;;;;;;;200.45;55.47;;;;;;;;;;4997042;28;20026;-81
2021/03/14 01:43:35;;;;;;;115.55;37.63;;;;;;;;;;4997999;28;20069;-81
2021/03/14 01:46:01;;;;;;;60.77;28.50;;;;;;;;;;4996369;28;20022;-80
2021/03/14 01:48:27;;;;;;;40.95;23.77;;;;;;;;;;4996452;28;20417;-81
2021/03/14 01:50:53;;;;;;;40.33;23.40;;;;;;;;;;4997414;28;20141;-81
2021/03/14 01:53:21;;;;;;;33.00;20.95;;;;;;;;;;4997600;28;20050;-81
2021/03/14 01:55:47;;;;;;;35.17;20.80;;;;;;;;;;4997591;28;20042;-81
2021/03/14 01:58:14;;;;;;;35.53;21.17;;;;;;;;;;4996524;28;20031;-82
2021/03/14 02:00:40;;;;;;;38.85;20.90;;;;;;;;;;4997534;28;20022;-81
2021/03/14 02:03:06;;;;;;;34.75;21.88;;;;;;;;;;4997478;28;20317;-81
2021/03/14 02:05:33;;;;;;;35.75;22.13;;;;;;;;;;4996456;28;20070;-81
2021/03/14 02:07:59;;;;;;;34.33;20.88;;;;;;;;;;4997551;28;20034;-81
2021/03/14 02:10:27;;;;;;;35.15;20.80;;;;;;;;;;4997455;28;20073;-81
2021/03/14 02:12:59;;;;;;;34.80;20.65;;;;;;;;;;4997426;28;20022;-81
2021/03/14 02:15:27;;;;;;;33.33;21.10;;;;;;;;;;4996302;28;20026;-81
2021/03/14 02:17:54;;;;;;;31.95;20.80;;;;;;;;;;4997315;28;20045;-81
2021/03/14 02:20:22;;;;;;;34.38;20.83;;;;;;;;;;4997161;28;20117;-81
2021/03/14 02:22:49;;;;;;;34.35;20.58;;;;;;;;;;4997787;28;20038;-83
2021/03/14 02:25:21;;;;;;;34.65;20.17;;;;;;;;;;4997952;28;20026;-84
2021/03/14 02:27:47;;;;;;;32.03;18.23;;;;;;;;;;4997791;28;20037;-84
2021/03/14 02:30:14;;;;;;;29.30;17.88;;;;;;;;;;4997744;28;20114;-84
2021/03/14 02:32:41;;;;;;;30.70;17.70;;;;;;;;;;4997427;28;20405;-83
2021/03/14 02:35:09;;;;;;;33.28;19.50;;;;;;;;;;4997636;28;20030;-83
2021/03/14 02:37:36;;;;;;;30.25;18.33;;;;;;;;;;4997656;28;20023;-82
2021/03/14 02:40:02;;;;;;;35.72;19.20;;;;;;;;;;4997295;28;20038;-83
2021/03/14 02:42:29;;;;;;;43.30;22.33;;;;;;;;;;4997322;28;20031;-83
2021/03/14 02:44:57;;;;;;;43.83;22.58;;;;;;;;;;4997293;28;20081;-82
2021/03/14 02:47:24;;;;;;;29.00;18.58;;;;;;;;;;4997139;28;20030;-83
2021/03/14 02:49:50;;;;;;;30.75;17.85;;;;;;;;;;4997445;28;20049;-83
2021/03/14 02:52:48;;;;;;;30.10;16.70;;;;;;;;;;4996967;28;20039;-83
2021/03/14 02:55:17;;;;;;;25.95;16.00;;;;;;;;;;4997265;28;20409;-83
2021/03/14 02:57:44;;;;;;;34.10;17.33;;;;;;;;;;4997546;28;20026;-83
2021/03/14 03:00:12;;;;;;;34.30;19.48;;;;;;;;;;4998392;28;20022;-83
2021/03/14 03:02:39;;;;;;;28.95;17.35;;;;;;;;;;4999912;28;20041;-83
2021/03/14 03:05:06;;;;;;;29.95;16.45;;;;;;;;;;5000720;28;20113;-83
2021/03/14 03:07:51;;;;;;;29.05;17.00;;;;;;;;;;5000580;28;20030;-83
2021/03/14 03:10:18;;;;;;;28.52;15.70;;;;;;;;;;5000402;28;20069;-83
2021/03/14 03:12:46;;;;;;;25.58;15.23;;;;;;;;;;5000490;28;20030;-83
2021/03/14 03:15:12;;;;;;;25.58;14.98;;;;;;;;;;5000513;28;20034;-83
2021/03/14 03:17:39;;;;;;;28.73;16.75;;;;;;;;;;5000456;28;20030;-83
2021/03/14 03:20:05;;;;;;;26.27;15.13;;;;;;;;;;4999399;28;20032;-83
2021/03/14 03:25:35;;;;;;;25.88;15.52;;;;;;;;;;5000681;28;20451;-84
2021/03/14 03:28:01;;;;;;;24.65;14.48;;;;;;;;;;5000700;28;20360;-84
2021/03/14 03:30:28;;;;;;;25.70;15.30;;;;;;;;;;5000585;28;20030;-84
2021/03/14 03:32:54;;;;;;;23.50;15.15;;;;;;;;;;5000515;28;20046;-85
2021/03/14 03:35:21;;;;;;;25.80;15.68;;;;;;;;;;5000357;28;20033;-84
2021/03/14 03:37:48;;;;;;;28.63;16.33;;;;;;;;;;4999056;28;20038;-83
2021/03/14 03:40:16;;;;;;;23.73;15.63;;;;;;;;;;5000427;28;20030;-84
2021/03/14 03:42:56;;;;;;;25.13;15.60;;;;;;;;;;5000219;28;20027;-82
2021/03/14 03:45:22;;;;;;;23.30;14.95;;;;;;;;;;4998937;28;20034;-83
2021/03/14 03:47:49;;;;;;;26.10;14.35;;;;;;;;;;4999711;28;20058;-83
2021/03/14 03:50:16;;;;;;;22.67;13.88;;;;;;;;;;4999834;28;20030;-83
2021/03/14 03:53:00;;;;;;;26.38;15.30;;;;;;;;;;4999482;28;20046;-83
2021/03/14 03:55:27;;;;;;;24.80;14.68;;;;;;;;;;4999854;28;20065;-83
2021/03/14 03:57:54;;;;;;;23.65;14.90;;;;;;;;;;4999757;28;20397;-82
2021/03/14 04:00:20;;;;;;;34.50;18.05;;;;;;;;;;4999546;28;20030;-82
2021/03/14 04:02:47;;;;;;;46.88;20.33;;;;;;;;;;4999409;28;20034;-83
2021/03/14 04:05:14;;;;;;;425.70;100.22;;;;;;;;;;4999771;28;20109;-83
2021/03/14 04:07:42;;;;;;;444.92;146.55;;;;;;;;;;4998324;28;20450;-83
2021/03/14 04:10:09;;;;;;;259.67;108.38;;;;;;;;;;4999300;28;20035;-82
2021/03/14 04:12:37;;;;;;;130.75;56.92;;;;;;;;;;4999562;28;20077;-81
2021/03/14 04:15:03;;;;;;;78.43;39.00;;;;;;;;;;4999291;28;20123;-82
2021/03/14 04:17:30;;;;;;;63.30;31.65;;;;;;;;;;4999052;28;20022;-82
2021/03/14 04:19:58;;;;;;;44.53;24.75;;;;;;;;;;4999172;28;20038;-82
2021/03/14 04:22:43;;;;;;;34.85;20.80;;;;;;;;;;4997878;28;20041;-82
2021/03/14 04:25:10;;;;;;;31.92;19.10;;;;;;;;;;4998894;28;20113;-82
2021/03/14 04:27:37;;;;;;;32.40;18.77;;;;;;;;;;4981882;28;20042;-83
2021/03/14 04:30:03;;;;;;;33.67;18.73;;;;;;;;;;4998847;28;20117;-83
2021/03/14 04:32:30;;;;;;;30.13;17.65;;;;;;;;;;4998832;28;20432;-83
2021/03/14 04:34:56;;;;;;;31.02;17.58;;;;;;;;;;4999007;28;20022;-83
2021/03/14 04:37:22;;;;;;;32.63;17.55;;;;;;;;;;4998731;28;20121;-83
2021/03/14 04:39:48;;;;;;;30.92;17.02;;;;;;;;;;4998115;28;20034;-83
2021/03/14 04:42:14;;;;;;;32.42;17.13;;;;;;;;;;4999079;28;20022;-83
2021/03/14 04:44:41;;;;;;;32.67;17.50;;;;;;;;;;4998631;28;20033;-83
2021/03/14 04:47:07;;;;;;;31.15;16.23;;;;;;;;;;4998742;28;20413;-82
2021/03/14 04:49:33;;;;;;;32.92;18.33;;;;;;;;;;4997621;28;20046;-83
2021/03/14 04:52:00;;;;;;;31.63;18.27;;;;;;;;;;4998293;28;20042;-83
2021/03/14 04:54:27;;;;;;;35.58;18.02;;;;;;;;;;4998764;28;20102;-84
2021/03/14 04:56:53;;;;;;;25.08;15.00;;;;;;;;;;4997624;28;20054;-83
2021/03/14 04:59:20;;;;;;;24.42;15.35;;;;;;;;;;4997709;28;20321;-84
2021/03/14 05:01:47;;;;;;;25.58;14.88;;;;;;;;;;4997498;28;20357;-83
2021/03/14 05:04:14;;;;;;;23.00;14.07;;;;;;;;;;4997453;28;20018;-83
2021/03/14 05:06:44;;;;;;;22.13;13.48;;;;;;;;;;4998701;28;20025;-83
2021/03/14 05:09:30;;;;;;;21.77;13.18;;;;;;;;;;4998375;28;20042;-84
2021/03/14 05:11:56;;;;;;;21.40;13.02;;;;;;;;;;4998325;28;20022;-84
2021/03/14 05:14:23;;;;;;;22.67;13.70;;;;;;;;;;4997448;28;20038;-84
2021/03/14 05:16:49;;;;;;;28.27;14.02;;;;;;;;;;4997431;28;20432;-84
2021/03/14 05:19:15;;;;;;;24.92;14.50;;;;;;;;;;4998461;28;20138;-84
2021/03/14 05:21:42;;;;;;;25.08;12.43;;;;;;;;;;4998480;28;20049;-84
2021/03/14 05:24:11;;;;;;;25.13;14.25;;;;;;;;;;4996850;28;20061;-81
2021/03/14 05:26:37;;;;;;;23.77;14.43;;;;;;;;;;4998060;28;20026;-83
2021/03/14 05:29:04;;;;;;;27.83;14.10;;;;;;;;;;4997996;28;20328;-83
2021/03/14 05:31:34;;;;;;;21.83;12.73;;;;;;;;;;4998109;28;20035;-82
2021/03/14 05:34:02;;;;;;;19.13;11.73;;;;;;;;;;4998206;28;20027;-83
2021/03/14 05:36:28;;;;;;;21.08;11.48;;;;;;;;;;4998182;28;20115;-83
2021/03/14 05:38:55;;;;;;;18.67;10.77;;;;;;;;;;4997786;28;20026;-83
2021/03/14 05:41:21;;;;;;;22.15;12.38;;;;;;;;;;4998166;28;20026;-83
2021/03/14 05:43:48;;;;;;;24.67;13.00;;;;;;;;;;4998269;28;20092;-83
2021/03/14 05:46:14;;;;;;;22.55;12.48;;;;;;;;;;4997828;28;20030;-83
2021/03/14 05:48:42;;;;;;;21.23;12.10;;;;;;;;;;4997948;28;20026;-83
2021/03/14 05:51:08;;;;;;;23.38;12.00;;;;;;;;;;4997608;28;20054;-83
2021/03/14 05:53:53;;;;;;;23.73;11.73;;;;;;;;;;4997683;28;20026;-83
2021/03/14 05:56:20;;;;;;;20.33;11.88;;;;;;;;;;4997749;28;20026;-83
2021/03/14 05:58:47;;;;;;;23.60;12.32;;;;;;;;;;4998050;28;20068;-85
2021/03/14 06:01:17;;;;;;;19.25;12.18;;;;;;;;;;4998232;28;20030;-85
2021/03/14 06:03:44;;;;;;;19.48;11.93;;;;;;;;;;4998299;28;20402;-85
2021/03/14 06:06:14;;;;;;;20.02;11.23;;;;;;;;;;4998259;28;20030;-85
2021/03/14 06:11:44;;;;;;;26.02;12.10;;;;;;;;;;4998130;28;20064;-85
2021/03/14 06:14:10;;;;;;;24.67;13.15;;;;;;;;;;4996910;28;20348;-85
2021/03/14 06:16:36;;;;;;;26.63;14.60;;;;;;;;;;4998023;28;20027;-83
2021/03/14 06:19:02;;;;;;;40.33;27.70;;;;;;;;;;4997700;28;20026;-83
2021/03/14 06:21:29;;;;;;;26.05;18.10;;;;;;;;;;4997486;28;20037;-82
2021/03/14 06:23:55;;;;;;;24.42;14.50;;;;;;;;;;4997459;28;20113;-83
2021/03/14 06:26:30;;;;;;;30.48;15.43;;;;;;;;;;4996455;28;20026;-83
2021/03/14 06:28:57;;;;;;;65.10;24.23;;;;;;;;;;4997807;28;20065;-82
2021/03/14 06:31:23;;;;;;;82.70;30.02;;;;;;;;;;4996589;28;20054;-85
2021/03/14 06:33:49;;;;;;;44.17;24.20;;;;;;;;;;4996690;28;20038;-85
2021/03/14 06:36:19;;;;;;;48.08;31.35;;;;;;;;;;5000863;28;20401;-83
2021/03/14 06:38:46;;;;;;;98.72;61.22;;;;;;;;;;5001187;28;20030;-83
2021/03/14 06:41:16;;;;;;;95.47;58.67;;;;;;;;;;5001109;28;20113;-83
2021/03/14 06:43:45;;;;;;;28.33;19.33;;;;;;;;;;5001138;28;20033;-83
2021/03/14 06:46:22;;;;;;;25.52;13.00;;;;;;;;;;5001258;28;20105;-83
2021/03/14 06:48:49;;;;;;;23.13;11.50;;;;;;;;;;5001154;28;20037;-83
2021/03/14 06:51:53;;;;;;;20.00;9.27;;;;;;;;;;5000646;28;20057;-83
2021/03/14 06:54:35;;;;;;;18.45;8.15;;;;;;;;;;4960245;29;20039;-83
2021/03/14 06:57:13;;;;;;;13.77;5.85;;;;;;;;;;4960356;29;20454;-83
2021/03/14 06:59:48;;;;;;;4.50;3.00;;;;;;;;;;4960166;29;20027;-83
2021/03/14 07:02:14;;;;;;;19.40;7.82;;;;;;;;;;4960151;29;20031;-82
2021/03/14 07:04:43;;;;;;;21.77;9.65;;;;;;;;;;4960054;28;20031;-83
2021/03/14 07:07:25;;;;;;;49.20;24.35;;;;;;;;;;4960216;29;20031;-82
2021/03/14 07:10:07;;;;;;;30.63;16.50;;;;;;;;;;4959990;28;20054;-83
2021/03/14 07:12:33;;;;;;;;;;;;;;;;;;4960516;29;20032;-82
2021/03/14 07:15:18;;;;;;;31.60;14.73;;;;;;;;;;4959893;29;19906;-82
2021/03/14 07:18:02;;;;;;;27.08;13.68;;;;;;;;;;4959841;29;20035;-82
2021/03/14 07:20:30;;;;;;;17.63;11.32;;;;;;;;;;4959800;28;20039;-82
2021/03/14 07:23:06;;;;;;;20.30;12.63;;;;;;;;;;4959787;28;20031;-82
2021/03/14 07:25:33;;;;;;;19.50;14.07;;;;;;;;;;4988159;28;20046;-82
2021/03/14 07:27:59;;;;;;;33.38;21.88;;;;;;;;;;4999051;28;20033;-83
2021/03/14 07:30:27;;;;;;;32.00;24.23;;;;;;;;;;4999714;28;20035;-83
2021/03/14 07:32:54;;;;;;;19.08;13.80;;;;;;;;;;5000357;28;20023;-82
2021/03/14 07:35:20;;;;;;;14.15;9.02;;;;;;;;;;5000006;28;20028;-83
2021/03/14 07:40:50;;;;;;;22.30;11.45;;;;;;;;;;5000371;28;20344;-82
2021/03/14 07:43:16;;;;;;;37.47;20.30;;;;;;;;;;5000343;28;20018;-82
2021/03/14 07:45:43;;;;;;;18.70;14.15;;;;;;;;;;4999586;28;20034;-82
2021/03/14 07:48:10;;;;;;;31.38;21.60;;;;;;;;;;5000162;28;20041;-82
2021/03/14 07:50:38;;;;;;;13.93;10.35;;;;;;;;;;4999773;28;20130;-82
2021/03/14 07:53:08;;;;;;;21.63;11.40;;;;;;;;;;4998714;28;20034;-82
2021/03/14 07:55:34;;;;;;;13.23;9.43;;;;;;;;;;4999744;28;20040;-82
2021/03/14 07:58:00;;;;;;;14.93;9.15;;;;;;;;;;4999528;28;20317;-83
2021/03/14 08:00:27;;;;;;;20.92;10.55;;;;;;;;;;4999800;28;20134;-82
2021/03/14 08:02:53;;;;;;;13.90;9.15;;;;;;;;;;5000000;28;20026;-83
2021/03/14 08:05:43;;;;;;;13.20;9.52;;;;;;;;;;4999805;28;20076;-83
2021/03/14 08:08:10;;;;;;;17.92;11.63;;;;;;;;;;4998566;28;20026;-83
2021/03/14 08:10:38;;;;;;;16.65;9.63;;;;;;;;;;4998727;28;20030;-83
2021/03/14 08:13:05;;;;;;;20.13;11.23;;;;;;;;;;4999385;28;20045;-82
2021/03/14 08:15:32;;;;;;;19.08;10.43;;;;;;;;;;4999190;28;20030;-82
2021/03/14 08:17:59;;;;;;;22.17;13.02;;;;;;;;;;4999187;28;20033;-82
2021/03/14 08:20:39;;;;;;;18.58;10.85;;;;;;;;;;4998396;28;20037;-82
2021/03/14 08:23:05;;;;;;;20.25;12.05;;;;;;;;;;4999025;28;20037;-81
2021/03/14 08:25:43;;;;;;;19.92;12.02;;;;;;;;;;4998969;28;20030;-82
2021/03/14 08:28:28;;;;;;;21.73;12.88;;;;;;;;;;4998911;28;20034;-82
2021/03/14 08:30:54;;;;;;;19.42;11.68;;;;;;;;;;4998882;28;20033;-81
2021/03/14 08:33:22;;;;;;;17.75;12.00;;;;;;;;;;4997918;28;20061;-82
2021/03/14 08:35:48;;;;;;;19.27;13.20;;;;;;;;;;4999253;28;20037;-81
2021/03/14 08:38:24;;;;;;;26.30;18.35;;;;;;;;;;4998621;28;20019;-83
2021/03/14 08:40:50;;;;;;;24.45;15.13;;;;;;;;;;4999012;28;20050;-83
2021/03/14 08:43:36;;;;;;;24.90;14.40;;;;;;;;;;4997848;28;20033;-82
2021/03/14 08:46:02;;;;;;;27.67;17.00;;;;;;;;;;4998391;28;20041;-82
2021/03/14 08:48:28;;;;;;;36.25;21.15;;;;;;;;;;4998873;28;20092;-82
2021/03/14 08:50:54;;;;;;;44.05;22.67;;;;;;;;;;4997296;28;20081;-82
2021/03/14 08:53:21;;;;;;;58.90;35.75;;;;;;;;;;4998366;28;20421;-82
2021/03/14 08:55:47;;;;;;;56.38;34.83;;;;;;;;;;4998460;28;20405;-82
2021/03/14 08:58:16;;;;;;;47.80;29.80;;;;;;;;;;4997713;28;20113;-85
2021/03/14 09:00:42;;;;;;;52.95;30.60;;;;;;;;;;4998397;28;20034;-84
2021/03/14 09:03:11;;;;;;;72.13;36.05;;;;;;;;;;4997613;28;20034;-84
2021/03/14 09:05:56;;;;;;;65.82;37.30;;;;;;;;;;4999045;28;20026;-84
2021/03/14 09:08:22;;;;;;;59.67;36.53;;;;;;;;;;4998497;28;20033;-84
2021/03/14 09:10:48;;;;;;;65.55;43.13;;;;;;;;;;4998455;28;20026;-83
2021/03/14 09:13:26;;;;;;;54.13;34.95;;;;;;;;;;4997477;28;20417;-83
2021/03/14 09:15:52;;;;;;;58.03;36.13;;;;;;;;;;4998705;28;20030;-84
2021/03/14 09:18:25;;;;;;;57.03;29.60;;;;;;;;;;4998278;28;20022;-83
2021/03/14 09:21:00;;;;;;;93.13;62.65;;;;;;;;;;4998368;28;20034;-83
2021/03/14 09:23:26;;;;;;;113.53;78.15;;;;;;;;;;4997269;28;20030;-84
2021/03/14 09:25:55;;;;;;;82.28;57.47;;;;;;;;;;4998207;28;20031;-83
2021/03/14 09:28:21;;;;;;;47.20;27.95;;;;;;;;;;4998081;28;20409;-84
2021/03/14 09:30:47;;;;;;;37.92;21.60;;;;;;;;;;4998370;28;20034;-83
2021/03/14 09:33:13;;;;;;;39.90;21.45;;;;;;;;;;4998032;28;20019;-83
2021/03/14 09:35:40;;;;;;;32.92;17.25;;;;;;;;;;4996782;28;20022;-83
2021/03/14 09:38:10;;;;;;;21.88;13.07;;;;;;;;;;4998082;28;20027;-85
2021/03/14 09:40:50;;;;;;;20.88;12.85;;;;;;;;;;4997126;28;20030;-85
2021/03/14 09:43:20;;;;;;;26.08;13.48;;;;;;;;;;4998602;28;20026;-85
2021/03/14 09:45:51;;;;;;;28.00;15.70;;;;;;;;;;4997151;28;20026;-85
2021/03/14 09:48:17;;;;;;;18.17;11.75;;;;;;;;;;4997130;28;20421;-85
2021/03/14 09:50:52;;;;;;;20.58;11.90;;;;;;;;;;4997605;28;20065;-85
2021/03/14 09:53:22;;;;;;;18.75;10.60;;;;;;;;;;4997952;28;20057;-84
2021/03/14 09:55:53;;;;;;;15.35;9.13;;;;;;;;;;4997880;28;20030;-84
2021/03/14 09:58:20;;;;;;;17.23;8.23;;;;;;;;;;4997946;28;20105;-84
2021/03/14 10:00:47;;;;;;;27.80;16.33;;;;;;;;;;4998289;28;20376;-85
2021/03/14 10:03:14;;;;;;;33.47;18.38;;;;;;;;;;4996793;28;20306;-85
2021/03/14 10:05:44;;;;;;;21.77;12.13;;;;;;;;;;4997744;28;20022;-83
2021/03/14 10:11:17;;;;;;;18.95;9.73;;;;;;;;;;5001628;28;20061;-83
2021/03/14 10:13:47;;;;;;;17.90;10.15;;;;;;;;;;5000713;28;20069;-83
2021/03/14 10:16:14;;;;;;;16.23;8.30;;;;;;;;;;5002084;28;20026;-86
2021/03/14 10:18:41;;;;;;;15.65;10.00;;;;;;;;;;5001407;28;20029;-83
2021/03/14 10:21:17;;;;;;;19.73;11.38;;;;;;;;;;5001572;28;20057;-83
2021/03/14 10:23:44;;;;;;;59.45;30.63;;;;;;;;;;5001495;28;20037;-83
2021/03/14 10:26:10;;;;;;;38.53;20.20;;;;;;;;;;5001797;28;20046;-84
2021/03/14 10:28:37;;;;;;;22.88;12.98;;;;;;;;;;5001751;28;20045;-84
2021/03/14 10:31:06;;;;;;;34.85;17.80;;;;;;;;;;5001383;28;20072;-84
2021/03/14 10:33:33;;;;;;;15.05;9.13;;;;;;;;;;5001462;28;20029;-84
2021/03/14 10:36:00;;;;;;;23.75;13.25;;;;;;;;;;5001343;28;20026;-84
2021/03/14 10:38:27;;;;;;;17.30;10.68;;;;;;;;;;5001629;28;20101;-84
2021/03/14 10:41:07;;;;;;;22.85;12.60;;;;;;;;;;5001226;28;20026;-83
2021/03/14 10:43:33;;;;;;;16.27;9.20;;;;;;;;;;5001267;28;20027;-84
2021/03/14 10:45:59;;;;;;;16.77;8.48;;;;;;;;;;5001167;28;20029;-84
2021/03/14 10:48:26;;;;;;;15.60;8.63;;;;;;;;;;5000966;28;20142;-83
2021/03/14 10:50:59;;;;;;;18.92;11.00;;;;;;;;;;4999609;28;20116;-83
2021/03/14 10:53:25;;;;;;;16.20;8.43;;;;;;;;;;4999348;28;20030;-82
2021/03/14 10:56:00;;;;;;;13.35;8.45;;;;;;;;;;5000976;28;20023;-83
2021/03/14 10:58:34;;;;;;;12.02;5.97;;;;;;;;;;4999728;28;20065;-83
2021/03/14 11:01:01;;;;;;;21.40;13.15;;;;;;;;;;4999758;28;20034;-82
2021/03/14 11:03:30;;;;;;;15.35;9.05;;;;;;;;;;5000311;28;20041;-82
2021/03/14 11:06:14;;;;;;;14.05;8.45;;;;;;;;;;4999773;28;20069;-84
2021/03/14 11:09:05;;;;;;;15.90;9.55;;;;;;;;;;5000792;28;20037;-84
2021/03/14 11:11:37;;;;;;;11.50;6.95;;;;;;;;;;5000574;28;20029;-83
2021/03/14 11:14:22;;;;;;;16.35;8.00;;;;;;;;;;5000416;28;20023;-83
2021/03/14 11:17:02;;;;;;;18.05;10.52;;;;;;;;;;5008350;28;20125;-83
2021/03/14 11:19:28;;;;;;;12.70;6.45;;;;;;;;;;5007920;28;20102;-84
2021/03/14 11:21:54;;;;;;;13.23;8.40;;;;;;;;;;5006052;28;20365;-83
2021/03/14 11:24:20;;;;;;;14.55;9.35;;;;;;;;;;5005222;28;20029;-84
2021/03/14 11:26:46;;;;;;;71.95;29.33;;;;;;;;;;5007764;28;20014;-84
2021/03/14 11:29:12;;;;;;;343.13;120.07;;;;;;;;;;5009953;28;20304;-83
2021/03/14 11:31:38;;;;;;;32.58;13.93;;;;;;;;;;5007383;28;20413;-79
2021/03/14 11:34:04;;;;;;;22.15;10.95;;;;;;;;;;5006971;28;20400;-82
2021/03/14 11:36:30;;;;;;;50.63;26.92;;;;;;;;;;4999668;28;20023;-76
2021/03/14 11:38:56;;;;;;;43.50;23.52;;;;;;;;;;4999814;28;20029;-76
2021/03/14 11:41:22;;;;;;;20.05;10.90;;;;;;;;;;4999878;28;20402;-76
2021/03/14 11:43:48;;;;;;;18.90;10.20;;;;;;;;;;4999824;28;20030;-75
2021/03/14 11:46:15;;;;;;;26.60;14.20;;;;;;;;;;4999766;28;20029;-76
2021/03/14 11:48:41;;;;;;;27.45;15.07;;;;;;;;;;4999704;28;20023;-76
2021/03/14 11:51:07;;;;;;;38.28;12.68;;;;;;;;;;4999423;28;20050;-77
2021/03/14 11:53:33;;;;;;;48.58;17.95;;;;;;;;;;4999265;28;20417;-77
2021/03/14 11:56:00;;;;;;;70.43;19.10;;;;;;;;;;4999493;28;20036;-77
2021/03/14 11:58:26;;;;;;;23.83;10.10;;;;;;;;;;4999654;28;20026;-76
2021/03/14 12:00:52;;;;;;;15.45;7.57;;;;;;;;;;4998669;28;20034;-77
2021/03/14 12:03:18;;;;;;;16.52;8.50;;;;;;;;;;5008404;28;20030;-76
2021/03/14 12:05:44;;;;;;;17.77;9.80;;;;;;;;;;5007759;28;20018;-76
2021/03/14 12:08:10;;;;;;;15.40;7.55;;;;;;;;;;5006651;28;20038;-76
2021/03/14 12:10:37;;;;;;;17.48;9.85;;;;;;;;;;5008675;28;20376;-76
2021/03/14 12:13:03;;;;;;;20.35;10.40;;;;;;;;;;5007145;28;20076;-76
2021/03/14 12:15:29;;;;;;;17.80;8.95;;;;;;;;;;5018859;28;20049;-76
2021/03/14 12:17:55;;;;;;;18.27;10.40;;;;;;;;;;5018893;28;20022;-76
2021/03/14 12:20:21;;;;;;;14.75;7.95;;;;;;;;;;5017465;28;20029;-76
2021/03/14 12:22:47;;;;;;;16.90;7.68;;;;;;;;;;5018539;28;20078;-76
2021/03/14 12:25:13;;;;;;;14.80;7.18;;;;;;;;;;5018455;28;20026;-76
2021/03/14 12:27:39;;;;;;;9.13;4.40;;;;;;;;;;5017168;28;20045;-76
2021/03/14 12:30:05;;;;;;;11.55;4.75;;;;;;;;;;5017333;28;20116;-77
2021/03/14 12:32:31;;;;;;;8.13;3.60;;;;;;;;;;5017465;28;20018;-76
2021/03/14 12:34:58;;;;;;;10.82;4.10;;;;;;;;;;5017387;28;20030;-76
2021/03/14 12:37:24;;;;;;;6.70;3.20;;;;;;;;;;5018135;28;20026;-76
2021/03/14 12:39:50;;;;;;;8.80;4.05;;;;;;;;;;5017873;28;20028;-76
2021/03/14 12:42:17;;;;;;;4.95;2.42;;;;;;;;;;5018516;28;20026;-76
2021/03/14 12:44:44;;;;;;;5.70;2.25;;;;;;;;;;5018406;28;20033;-77
2021/03/14 12:47:10;;;;;;;7.53;3.92;;;;;;;;;;5017027;28;20513;-76
2021/03/14 12:49:36;;;;;;;7.38;2.10;;;;;;;;;;5018192;28;20079;-77
2021/03/14 12:52:02;;;;;;;11.05;5.05;;;;;;;;;;5017723;28;20117;-77
2021/03/14 12:54:28;;;;;;;10.98;3.80;;;;;;;;;;5017634;28;20022;-77
2021/03/14 12:56:54;;;;;;;5.35;2.13;;;;;;;;;;5017710;28;20018;-77
2021/03/14 12:59:21;;;;;;;6.05;2.00;;;;;;;;;;4992879;28;20302;-76
2021/03/14 13:01:47;;;;;;;8.80;3.78;;;;;;;;;;4996861;28;20034;-76
2021/03/14 13:04:13;;;;;;;10.07;3.80;;;;;;;;;;4998202;28;20022;-76
2021/03/14 13:06:39;;;;;;;13.55;5.90;;;;;;;;;;4998053;28;20125;-76
2021/03/14 13:09:05;;;;;;;8.00;2.90;;;;;;;;;;4998116;28;20444;-88
2021/03/14 13:11:31;;;;;;;8.13;3.55;;;;;;;;;;5006020;28;20356;-86
2021/03/14 13:13:58;;;;;;;10.32;4.38;;;;;;;;;;4999505;28;20033;-87
2021/03/14 13:16:24;;;;;;;5.22;1.80;;;;;;;;;;4997999;28;20034;-87
2021/03/14 13:18:50;;;;;;;9.38;3.20;;;;;;;;;;4998463;28;20038;-88
2021/03/14 13:21:16;;;;;;;9.95;3.47;;;;;;;;;;4998670;28;20034;-88
2021/03/14 13:23:42;;;;;;;15.40;5.30;;;;;;;;;;4997188;28;20361;-87
2021/03/14 13:26:09;;;;;;;7.28;3.60;;;;;;;;;;4998635;28;20026;-87
2021/03/14 13:28:35;;;;;;;13.25;6.75;;;;;;;;;;4997071;28;20056;-85
2021/03/14 13:31:01;;;;;;;8.15;4.50;;;;;;;;;;4998305;28;20023;-86
2021/03/14 13:33:28;;;;;;;11.05;4.57;;;;;;;;;;4998237;28;20027;-86
2021/03/14 13:35:54;;;;;;;6.95;4.13;;;;;;;;;;4998159;28;20023;-81
2021/03/14 13:38:21;;;;;;;13.35;5.38;;;;;;;;;;4992737;28;20024;-76
2021/03/14 13:40:47;;;;;;;9.73;4.70;;;;;;;;;;4978206;28;20058;-76
2021/03/14 13:43:13;;;;;;;10.00;4.53;;;;;;;;;;4977720;28;20319;-76
2021/03/14 13:45:40;;;;;;;11.25;5.82;;;;;;;;;;4978087;28;20023;-75
2021/03/14 13:48:06;;;;;;;8.18;4.47;;;;;;;;;;4976987;28;20038;-76
2021/03/14 13:50:32;;;;;;;18.30;7.18;;;;;;;;;;4996385;28;20102;-76
2021/03/14 13:52:58;;;;;;;14.77;6.70;;;;;;;;;;4997326;28;20058;-76
2021/03/14 13:55:24;;;;;;;37.38;10.85;;;;;;;;;;4997462;28;20025;-76
2021/03/14 13:57:51;;;;;;;34.05;11.20;;;;;;;;;;4996376;28;20093;-76
2021/03/14 14:00:18;;;;;;;15.75;7.13;;;;;;;;;;4997450;28;20022;-75
2021/03/14 14:02:46;;;;;;;12.38;7.00;;;;;;;;;;4997488;28;20038;-76
2021/03/14 14:05:13;;;;;;;11.43;7.85;;;;;;;;;;4997474;28;20452;-76
2021/03/14 14:07:39;;;;;;;14.40;7.72;;;;;;;;;;4997231;28;20041;-76
2021/03/14 14:10:06;;;;;;;15.10;7.00;;;;;;;;;;4997326;28;20072;-79
2021/03/14 14:12:32;;;;;;;11.23;7.35;;;;;;;;;;4996488;28;20029;-79
2021/03/14 14:14:59;;;;;;;12.57;8.40;;;;;;;;;;4997038;28;20034;-79
2021/03/14 14:17:25;;;;;;;12.05;7.93;;;;;;;;;;5014635;28;20109;-79
2021/03/14 14:19:51;;;;;;;14.73;9.27;;;;;;;;;;5016968;28;20108;-79
2021/03/14 14:22:17;;;;;;;13.18;8.88;;;;;;;;;;5016759;28;20037;-78
2021/03/14 14:24:43;;;;;;;19.15;11.57;;;;;;;;;;5016880;28;20030;-79
2021/03/14 14:27:10;;;;;;;21.75;13.63;;;;;;;;;;5016827;28;20408;-79
2021/03/14 14:29:36;;;;;;;21.80;11.70;;;;;;;;;;4991861;28;20072;-79
2021/03/14 14:32:03;;;;;;;16.98;9.38;;;;;;;;;;4977823;28;20027;-82
2021/03/14 14:34:29;;;;;;;20.80;12.65;;;;;;;;;;4977843;28;20026;-79
2021/03/14 14:36:55;;;;;;;21.58;11.93;;;;;;;;;;4979889;28;20031;-79
2021/03/14 14:39:23;;;;;;;19.35;11.43;;;;;;;;;;4977720;28;20051;-78